WMKJWMKI

Guest
Details From WMKJ - Johor Bahru Sultan Ismail
To WMKI - Ipoh/Sultan Azlan Shaw
Flight Number -
Tags decoded
Created
Modified
Stats Distance 252 nm / 467 km
Max Altitude 0 ft / 0 m
Waypoints 5
Social Downloads 4
Likes 0
Share VATSIM

Download

Looking for another format? Having issues loading an existing format? Contact us
Advertisement - Login to hide

Notes

Requested: WMKJ VMK VKL VIH WMKI

Route

WMKJ VMK VKL VIH WMKI

ID Type Via Altitude Latitude Longitude Leg Dist Tot Dist Heading (true) Name
O WMKJ APT - 0 ft / 0 m 1.64131˚ 103.66962˚ - 0 nm - Johor Bahru Sultan Ismail
VMK VOR - 0 ft / 0 m 2.25639˚ 102.25056˚ 92 nm 92 nm 293° / 293° MALACCA VOR-DME
VKL VOR - 0 ft / 0 m 2.72444˚ 101.73806˚ 41 nm 134 nm 312° / 312° KUALA LUMPUR VOR-DME
VIH VOR - 0 ft / 0 m 4.57303˚ 101.09361˚ 117 nm 252 nm 341° / 341° IPOH VOR-DME
O WMKI APT - 0 ft / 0 m 4.56797˚ 101.09219˚ 0 nm 252 nm 196° / 196° Ipoh/Sultan Azlan Shaw

Altitude Profile

Advertisement - Login to hide

Weather


0- 5 10 15 20 25 30 35+ Temperature / ° C

Clouds and Precipitation
Forecast for 2017-12-18 06:00 UTC. Updated 15 minutes ago

Ground ~20,000 ft ~40,000 ft Winds

WMKJ

Details ICAO WMKJ (JHB)
Name Johor Bahru Sultan Ismail
Region Malaysia (Peninsular Malaysia)
Timezone Asia/Kuala_Lumpur (UTC+8.0)
Stats Elevation 135 ft / 41 m (AMSL)
Location 1.641307° 103.669618°
Runways 1
Magnetic Variation 0.194° E

METAR

WMKJ 180500Z 03010KT 330V060 9999 SCT018 BKN300 30/24 Q1012

Decode

TAF

Not found

Departure Runways

ID Width Length Bearing (true) Bearing (mag) Surface Threshold Offset Overrun Length
16 150 ft / 46 m 11,014 ft / 3,357 m 159.95° 159.76° Asphalt 0 ft / 0 m 200 ft / 61 m
34 150 ft / 46 m 11,014 ft / 3,357 m 339.95° 339.76° Asphalt 0 ft / 0 m 200 ft / 61 m

WMKI

Details ICAO WMKI (IPH)
Name Ipoh/Sultan Azlan Shaw
Region Malaysia (Peninsular Malaysia)
Timezone Asia/Kuala_Lumpur (UTC+8.0)
Stats Elevation 130 ft / 40 m (AMSL)
Location 4.567972° 101.092195°
Runways 1
Magnetic Variation 0.117° W

METAR

WMKI 180500Z VRB02KT 9999 FEW017CB SCT140 BKN280 31/23 Q1011

Decode

TAF

Not found

Destination Runways

ID Width Length Bearing (true) Bearing (mag) Surface Threshold Offset Overrun Length
04 121 ft / 37 m 5,917 ft / 1,804 m 41.21° 41.33° Asphalt 0 ft / 0 m 0 ft / 0 m
22 121 ft / 37 m 5,917 ft / 1,804 m 221.21° 221.33° Asphalt 0 ft / 0 m 0 ft / 0 m

Approach Navaids

Runway Type Ident Frequency Range Bearing (true) Bearing (mag) Slope Elevation
04 Localiser IPO 110.50 MHz 18 nm / 33 km 41.21° 41.33° - 130 ft / 40 m (AMSL)
04 Glidescope IPO 110.50 MHz 10 nm / 19 km 41.21° 41.33° 3.00° 130 ft / 40 m (AMSL)
04 DME IPO 110.50 MHz 18 nm / 33 km - - - 130 ft / 40 m (AMSL)

Popular Alternatives